KLARKFNL

Guest
Details From KLAR - LARAMIE RGNL
To KFNL - FORT COLLINS LOVELAND MUNI
Flight Number -
Tags generated
Created
Modified
Stats Distance 60 nm / 111 km
Max Altitude 1,100 ft / 335 m
Waypoints 3
Social Downloads 0
Likes 0
Share VATSIM

Download

Looking for another format? Having issues loading an existing format? Contact us
Advertisement - Login to hide

Notes

Basic altitude profile: - Ascent Rate: 500ft/min - Ascent Speed: 70kts - Cruise Altitude: 10000ft - Cruise Speed: 100kts - Descent Rate: 500ft/min - Descent Speed: 70kts Options: - Use NATs: yes - Use PACOTS: yes - Use low airways: yes - Use high airways: yes

Route

KLAR LIBEL KFNL

ID Type Via Altitude Latitude Longitude Leg Dist Tot Dist Heading (true) Name
O KLAR APT - 0 ft / 0 m 41.31230˚ -105.67471˚ - 0 nm - LARAMIE RGNL
LIBEL FIX - 1,100 ft / 335 m 40.51237˚ -105.10279˚ 54 nm 54 nm 151° / 152° -
O KFNL APT - 0 ft / 0 m 40.45258˚ -105.00998˚ 5 nm 60 nm 130° / 130° FORT COLLINS LOVELAND MUNI

Altitude Profile

Advertisement - Login to hide

KLAR

Details ICAO KLAR (LAR)
Name LARAMIE RGNL
Region United States
Timezone America/Denver (UTC-7.0)
Stats Elevation 7,284 ft / 2,220 m (AMSL)
Location 41.312302° -105.674710°
Runways 2
Magnetic Variation 8.714° E

METAR

KLAR 170631Z AUTO 15013KT 10SM SCT008 M06/M06 A2986 RMK AO2 T10561056

Decode

TAF

TAF AMD KLAR 170616Z 1706/1806 13014KT P6SM BKN010 FM170800 13015G22KT P6SM OVC008 FM171500 26012KT P6SM SCT015 BKN080 FM171700 27015G25KT P6SM SCT080

Decode

Departure Runways

ID Width Length Bearing (true) Bearing (mag) Surface Threshold Offset Overrun Length
03 151 ft / 46 m 8,498 ft / 2,590 m 45.45° 36.74° Asphalt 0 ft / 0 m 0 ft / 0 m
12 98 ft / 30 m 6,327 ft / 1,928 m 134.64° 125.93° Asphalt 0 ft / 0 m 0 ft / 0 m
21 151 ft / 46 m 8,498 ft / 2,590 m 225.46° 216.75° Asphalt 0 ft / 0 m 0 ft / 0 m
30 98 ft / 30 m 6,327 ft / 1,928 m 314.65° 305.94° Asphalt 0 ft / 0 m 0 ft / 0 m

KFNL

Details ICAO KFNL (FNL)
Name FORT COLLINS LOVELAND MUNI
Region United States
Timezone America/Denver (UTC-7.0)
Stats Elevation 5,016 ft / 1,529 m (AMSL)
Location 40.452576° -105.009981°
Runways 2
Magnetic Variation 8.289° E

METAR

KFNL 170556Z AUTO 02004KT 10SM OVC012 00/M03 A2997 RMK AO2 SLP150 T00001028 10044 21006 51013 FZRANO

Decode

TAF

Not found

Destination Runways

ID Width Length Bearing (true) Bearing (mag) Surface Threshold Offset Overrun Length
06 39 ft / 12 m 2,275 ft / 693 m 70.56° 62.27° Asphalt 0 ft / 0 m 0 ft / 0 m
15 98 ft / 30 m 8,509 ft / 2,594 m 160.49° 152.20° Asphalt 0 ft / 0 m 151 ft / 46 m
24 39 ft / 12 m 2,275 ft / 693 m 250.56° 242.27° Asphalt 0 ft / 0 m 0 ft / 0 m
33 98 ft / 30 m 8,509 ft / 2,594 m 340.50° 332.21° Asphalt 0 ft / 0 m 0 ft / 0 m

Approach Navaids

Runway Type Ident Frequency Range Bearing (true) Bearing (mag) Slope Elevation
33 Localiser IFNL 109.50 MHz 18 nm / 33 km 340.46° 332.17° - 5,016 ft / 1,529 m (AMSL)
33 Glidescope IFNL 109.50 MHz 10 nm / 19 km 340.50° 332.21° 3.00° 5,012 ft / 1,528 m (AMSL)